Time;durP1;ratioP1;P1;durP2;ratioP2;P2;SDS_P1;SDS_P2;PMS_P1;PMS_P2;Temp;Humidity;BMP_temperature;BMP_pressure;BME280_temperature;BME280_humidity;BME280_pressure;Samples;Min_cycle;Max_cycle;Signal;HPM_P1;HPM_P2
2021/01/23 04:00:23;;;;;;;0.88;0.70;;;3.80;99.90;;;;;;5948907;23;89322;-79
2021/01/23 04:02:49;;;;;;;2.60;2.50;;;3.80;99.90;;;;;;4943093;28;86845;-80
2021/01/23 04:05:15;;;;;;;1.38;0.90;;;3.80;99.90;;;;;;4931700;28;87916;-79
2021/01/23 04:07:40;;;;;;;0.60;0.60;;;3.80;99.90;;;;;;4940604;28;86963;-79
2021/01/23 04:10:07;;;;;;;0.80;0.80;;;3.80;99.90;;;;;;4943998;28;87467;-79
2021/01/23 04:12:33;;;;;;;2.33;2.22;;;3.80;99.90;;;;;;4942925;28;89255;-80
2021/01/23 04:14:59;;;;;;;2.00;2.00;;;3.60;99.90;;;;;;4943541;28;87681;-79
2021/01/23 04:17:25;;;;;;;2.53;2.42;;;3.70;99.90;;;;;;4943308;28;86333;-81
2021/01/23 04:19:50;;;;;;;0.70;0.70;;;4.00;99.90;;;;;;4927650;28;86777;-79
2021/01/23 04:22:16;;;;;;;0.70;0.70;;;4.00;99.90;;;;;;4940795;28;88222;-80
2021/01/23 04:24:42;;;;;;;2.50;2.40;;;4.40;99.90;;;;;;4944076;28;87236;-79
2021/01/23 04:27:07;;;;;;;2.22;2.13;;;4.60;99.90;;;;;;4945466;28;86952;-79
2021/01/23 04:29:33;;;;;;;0.80;0.80;;;4.10;99.90;;;;;;4940545;28;86890;-79
2021/01/23 04:31:59;;;;;;;2.92;2.45;;;4.20;99.90;;;;;;4943079;28;87835;-79
2021/01/23 04:34:24;;;;;;;2.00;2.00;;;3.80;99.90;;;;;;4943139;28;88159;-79
2021/01/23 04:36:50;;;;;;;2.40;2.30;;;4.00;99.90;;;;;;4945176;28;86965;-80
2021/01/23 04:39:17;;;;;;;2.53;2.42;;;4.30;99.90;;;;;;4942048;28;85632;-80
2021/01/23 04:41:42;;;;;;;0.70;0.70;;;4.10;99.90;;;;;;4934220;28;87944;-80
2021/01/23 04:44:08;;;;;;;2.42;2.22;;;4.00;99.90;;;;;;4941165;28;87866;-79
2021/01/23 04:46:34;;;;;;;0.85;0.85;;;4.10;99.90;;;;;;4940945;28;87805;-78
2021/01/23 04:49:02;;;;;;;2.20;2.10;;;4.20;99.90;;;;;;4942543;28;86759;-80
2021/01/23 04:51:28;;;;;;;0.85;0.85;;;3.90;99.90;;;;;;4944496;28;87009;-79
2021/01/23 04:53:54;;;;;;;2.13;2.05;;;3.70;99.90;;;;;;4943222;28;86879;-80
2021/01/23 04:56:20;;;;;;;2.60;2.50;;;3.80;99.90;;;;;;4925643;28;86961;-79
2021/01/23 04:58:46;;;;;;;2.63;2.53;;;4.20;99.90;;;;;;4944468;28;86930;-79
2021/01/23 05:01:13;;;;;;;0.90;0.90;;;3.80;99.90;;;;;;4943728;28;87423;-80
2021/01/23 05:03:59;;;;;;;0.70;0.70;;;3.90;99.90;;;;;;4909831;28;88873;-80
2021/01/23 05:06:26;;;;;;;2.10;2.10;;;4.20;99.90;;;;;;4925350;28;87235;-80
2021/01/23 05:08:51;;;;;;;0.70;0.70;;;3.90;99.90;;;;;;4927951;28;86346;-79
2021/01/23 05:11:17;;;;;;;2.20;2.10;;;3.90;99.90;;;;;;4928638;28;88087;-79
2021/01/23 05:14:09;;;;;;;1.02;0.80;;;3.80;99.90;;;;;;4927631;28;87015;-79
2021/01/23 05:16:34;;;;;;;;;;;3.70;99.90;;;;;;4928409;28;87025;-80
2021/01/23 05:19:01;;;;;;;0.75;0.75;;;3.70;99.90;;;;;;4928444;28;86302;-79
2021/01/23 05:21:31;;;;;;;1.50;0.80;;;3.60;99.90;;;;;;4927625;28;87807;-79
2021/01/23 05:24:11;;;;;;;2.03;2.00;;;4.10;99.90;;;;;;4915320;28;89697;-80
2021/01/23 05:26:38;;;;;;;0.80;0.80;;;3.70;99.90;;;;;;4938193;28;86468;-79
2021/01/23 05:29:08;;;;;;;3.08;2.40;;;3.50;99.90;;;;;;4926840;28;86242;-78
2021/01/23 05:31:34;;;;;;;0.93;0.90;;;3.50;99.90;;;;;;4927392;28;87977;-80
2021/01/23 05:33:59;;;;;;;1.00;0.90;;;3.60;99.90;;;;;;4927055;28;87242;-79
2021/01/23 05:36:25;;;;;;;0.80;0.80;;;3.60;99.90;;;;;;4924903;28;88023;-80
2021/01/23 05:38:51;;;;;;;2.17;0.82;;;3.70;99.90;;;;;;4932183;28;86848;-80
2021/01/23 05:41:17;;;;;;;2.33;0.80;;;3.60;99.90;;;;;;4929052;28;87251;-80
2021/01/23 05:43:44;;;;;;;1.63;0.90;;;3.50;99.90;;;;;;4927784;28;86487;-79
2021/01/23 05:46:19;;;;;;;0.90;0.90;;;3.40;99.90;;;;;;4928147;28;87001;-80
2021/01/23 05:48:46;;;;;;;0.80;0.80;;;3.40;99.90;;;;;;4936240;28;87416;-80
2021/01/23 05:51:13;;;;;;;2.90;2.80;;;3.40;99.90;;;;;;4929289;28;87032;-81
2021/01/23 05:53:39;;;;;;;2.10;0.82;;;3.30;99.90;;;;;;4928556;28;86320;-79
2021/01/23 05:56:06;;;;;;;1.77;1.10;;;3.30;99.90;;;;;;4928925;28;86898;-81
2021/01/23 05:58:34;;;;;;;0.80;0.80;;;3.30;99.90;;;;;;4927615;28;86861;-79
2021/01/23 06:01:04;;;;;;;2.00;0.95;;;3.30;99.90;;;;;;4932834;28;89191;-79
2021/01/23 06:03:50;;;;;;;1.17;1.00;;;3.30;99.90;;;;;;4931332;28;88276;-79
2021/01/23 06:06:16;;;;;;;1.73;1.23;;;3.40;99.90;;;;;;4935364;28;86879;-79
2021/01/23 06:08:42;;;;;;;1.65;1.17;;;3.30;99.90;;;;;;4927927;28;87035;-81
2021/01/23 06:11:20;;;;;;;3.22;2.33;;;3.20;99.90;;;;;;4933249;28;88236;-79
2021/01/23 06:13:49;;;;;;;3.13;2.85;;;3.20;99.90;;;;;;4935335;28;86983;-79
2021/01/23 06:16:32;;;;;;;2.80;2.60;;;3.00;99.90;;;;;;4918336;28;86958;-79
2021/01/23 06:19:07;;;;;;;1.20;1.08;;;3.30;99.90;;;;;;4929739;28;86384;-81
2021/01/23 06:21:44;;;;;;;1.05;0.90;;;3.30;99.90;;;;;;4919188;28;87289;-81
2021/01/23 06:24:15;;;;;;;0.95;0.90;;;3.30;99.90;;;;;;4933004;28;86940;-80
2021/01/23 06:26:53;;;;;;;1.00;1.00;;;3.30;99.90;;;;;;4914013;28;87538;-81
2021/01/23 06:29:31;;;;;;;1.52;1.05;;;3.40;99.90;;;;;;4925453;28;87400;-79
2021/01/23 06:31:57;;;;;;;2.38;2.28;;;;;;;;;;4925379;28;87263;-81
2021/01/23 06:34:26;;;;;;;3.55;3.30;;;3.40;99.90;;;;;;4921847;28;87084;-81
2021/01/23 06:37:29;;;;;;;2.08;1.88;;;3.50;99.90;;;;;;4926247;28;86966;-80
2021/01/23 06:39:55;;;;;;;3.92;3.63;;;;;;;;;;4919852;28;87047;-80
2021/01/23 06:42:25;;;;;;;1.95;1.80;;;3.50;99.90;;;;;;4924594;28;88108;-80
2021/01/23 06:44:51;;;;;;;3.92;2.88;;;3.20;99.90;;;;;;4908310;28;89470;-81
2021/01/23 06:47:16;;;;;;;1.90;1.80;;;3.30;99.90;;;;;;4925159;28;87007;-80
2021/01/23 06:49:43;;;;;;;3.33;3.13;;;3.30;99.90;;;;;;4920361;28;86980;-81
2021/01/23 06:52:10;;;;;;;1.30;1.20;;;3.30;99.90;;;;;;4920392;28;87650;-79
2021/01/23 06:54:37;;;;;;;1.10;1.10;;;3.30;99.90;;;;;;4920134;28;87876;-81
2021/01/23 06:57:06;;;;;;;3.45;3.25;;;3.80;99.90;;;;;;4920322;28;87052;-80
2021/01/23 06:59:33;;;;;;;3.35;3.05;;;3.10;99.90;;;;;;4919654;28;87440;-81
2021/01/23 07:02:07;;;;;;;3.05;2.85;;;3.60;99.90;;;;;;4919645;28;88784;-79
2021/01/23 07:04:49;;;;;;;4.40;3.45;;;3.50;99.90;;;;;;4925066;28;87242;-81
2021/01/23 07:07:16;;;;;;;3.45;2.15;;;3.30;99.90;;;;;;4914258;28;86947;-80
2021/01/23 07:09:51;;;;;;;2.83;2.17;;;3.30;99.90;;;;;;4920917;28;86221;-81
2021/01/23 07:12:43;;;;;;;4.82;4.43;;;3.10;99.90;;;;;;4925116;28;87815;-80
2021/01/23 07:15:12;;;;;;;;;;;3.40;99.90;;;;;;4919738;28;88574;-79
2021/01/23 07:17:44;;;;;;;5.05;2.50;;;3.40;99.90;;;;;;4929016;28;87975;-80
2021/01/23 07:20:11;;;;;;;4.55;2.70;;;3.20;99.90;;;;;;4925858;28;87131;-80
2021/01/23 07:22:38;;;;;;;4.15;2.65;;;3.20;99.90;;;;;;4915410;28;89510;-79
2021/01/23 07:25:17;;;;;;;4.72;4.05;;;3.20;99.90;;;;;;4923159;28;86963;-81
2021/01/23 07:27:44;;;;;;;4.38;2.80;;;3.20;99.90;;;;;;4927624;28;86998;-81
2021/01/23 07:30:17;;;;;;;2.58;2.38;;;3.20;99.90;;;;;;4926761;28;86873;-80
2021/01/23 07:32:45;;;;;;;3.67;2.10;;;3.30;99.90;;;;;;4918392;28;87163;-80
2021/01/23 07:35:12;;;;;;;4.18;3.78;;;3.90;99.90;;;;;;4927348;28;87140;-79
2021/01/23 07:37:46;;;;;;;5.47;2.92;;;3.40;99.90;;;;;;4924177;28;86875;-79
2021/01/23 07:40:16;;;;;;;4.43;4.07;;;3.40;99.90;;;;;;4934015;28;86389;-79
2021/01/23 07:42:42;;;;;;;4.40;4.10;;;3.50;99.90;;;;;;4928112;28;88179;-79
2021/01/23 07:45:10;;;;;;;6.03;3.80;;;3.50;99.90;;;;;;4928343;28;88432;-80
2021/01/23 07:47:36;;;;;;;4.20;3.80;;;3.10;99.90;;;;;;4929463;28;86871;-79
2021/01/23 07:50:10;;;;;;;5.03;4.53;;;3.30;99.90;;;;;;4935059;28;86949;-79
2021/01/23 07:52:36;;;;;;;3.58;2.35;;;3.80;99.90;;;;;;4929915;28;86882;-78
2021/01/23 07:55:04;;;;;;;3.58;3.30;;;4.00;99.90;;;;;;4925563;28;86962;-79
2021/01/23 07:57:30;;;;;;;2.95;2.38;;;3.90;99.90;;;;;;4929305;28;86972;-81
2021/01/23 07:59:56;;;;;;;5.43;5.03;;;4.00;99.90;;;;;;4927324;28;86482;-81
2021/01/23 08:02:22;;;;;;;4.88;4.47;;;;;;;;;;4925036;28;87260;-81
2021/01/23 08:04:53;;;;;;;5.40;3.22;;;3.80;99.90;;;;;;4917354;28;87190;-79
2021/01/23 08:07:27;;;;;;;4.47;4.13;;;4.40;99.90;;;;;;4920934;28;87953;-80
2021/01/23 08:10:06;;;;;;;4.80;3.20;;;4.00;99.90;;;;;;4925063;28;87072;-80
2021/01/23 08:12:32;;;;;;;5.35;4.38;;;4.20;99.90;;;;;;4925084;28;88460;-80
2021/01/23 08:14:58;;;;;;;5.13;4.63;;;4.10;99.90;;;;;;4927516;28;87116;-79
2021/01/23 08:17:47;;;;;;;6.60;5.05;;;3.90;99.90;;;;;;4924460;28;86948;-79
2021/01/23 08:20:15;;;;;;;6.43;5.80;;;3.60;99.90;;;;;;4925077;28;87065;-79
2021/01/23 08:22:57;;;;;;;6.18;4.93;;;3.80;99.90;;;;;;4930324;28;86977;-80
2021/01/23 08:25:26;;;;;;;4.55;3.30;;;3.90;99.90;;;;;;4925567;28;87124;-81
2021/01/23 08:27:53;;;;;;;5.10;2.95;;;4.00;99.90;;;;;;4918832;28;86932;-81
2021/01/23 08:30:20;;;;;;;4.78;4.38;;;4.60;99.90;;;;;;4918858;28;87033;-80
2021/01/23 08:32:46;;;;;;;5.70;5.15;;;4.50;99.90;;;;;;4923827;28;88949;-79
2021/01/23 08:35:12;;;;;;;5.00;4.53;;;4.60;99.90;;;;;;4923265;28;88155;-82
2021/01/23 08:37:38;;;;;;;3.13;2.80;;;4.60;99.90;;;;;;4919765;28;87143;-81
2021/01/23 08:40:04;;;;;;;1.15;1.15;;;4.60;99.90;;;;;;4925233;28;87019;-80
2021/01/23 08:42:30;;;;;;;1.17;1.10;;;4.60;99.90;;;;;;4919060;28;86845;-81
2021/01/23 08:44:55;;;;;;;2.38;2.28;;;4.90;99.90;;;;;;4920040;28;87469;-80
2021/01/23 08:47:21;;;;;;;2.92;2.72;;;;;;;;;;4917302;28;87173;-80
2021/01/23 08:49:47;;;;;;;2.20;2.10;;;4.40;99.90;;;;;;4923215;28;86491;-81
2021/01/23 08:52:13;;;;;;;2.50;2.40;;;4.50;99.90;;;;;;4928073;28;87786;-81
2021/01/23 08:54:40;;;;;;;1.30;1.30;;;4.60;99.90;;;;;;4923642;28;87090;-82
2021/01/23 08:57:06;;;;;;;0.90;0.90;;;4.70;99.90;;;;;;4920500;28;87965;-82
2021/01/23 08:59:32;;;;;;;3.22;3.03;;;4.90;99.90;;;;;;4922980;28;86736;-86
2021/01/23 09:01:57;;;;;;;2.63;2.47;;;4.70;99.90;;;;;;4925162;28;87616;-82
2021/01/23 09:04:23;;;;;;;2.03;1.45;;;4.80;99.90;;;;;;4920747;28;87736;-83
2021/01/23 09:06:49;;;;;;;2.42;2.33;;;4.90;99.90;;;;;;4924513;28;86576;-84
2021/01/23 09:09:15;;;;;;;2.72;2.63;;;4.90;99.90;;;;;;4923617;28;86629;-82
2021/01/23 09:11:41;;;;;;;2.92;2.72;;;4.90;99.90;;;;;;4929510;28;88236;-84
2021/01/23 09:14:07;;;;;;;2.70;2.50;;;4.50;99.90;;;;;;4929913;28;86278;-83
2021/01/23 09:16:32;;;;;;;2.40;1.42;;;4.90;99.90;;;;;;4925295;28;87077;-83
2021/01/23 09:18:59;;;;;;;2.85;2.65;;;4.80;99.90;;;;;;4918970;28;87242;-83
2021/01/23 09:21:26;;;;;;;2.50;2.30;;;4.90;99.90;;;;;;4920843;28;88305;-84
2021/01/23 09:23:52;;;;;;;2.95;2.55;;;5.40;99.90;;;;;;4923680;28;88237;-85
2021/01/23 09:26:18;;;;;;;2.70;2.50;;;5.10;99.90;;;;;;4920396;28;86815;-84
2021/01/23 09:28:44;;;;;;;1.75;1.38;;;5.20;99.90;;;;;;4913659;28;86980;-85
2021/01/23 09:31:10;;;;;;;2.60;2.40;;;5.30;99.90;;;;;;4924362;28;87138;-87
2021/01/23 09:33:36;;;;;;;2.45;2.35;;;;;;;;;;4907732;28;87011;-84
2021/01/23 09:36:03;;;;;;;2.30;2.20;;;5.70;99.90;;;;;;4925192;28;87082;-86
2021/01/23 09:38:29;;;;;;;2.83;2.72;;;5.90;99.90;;;;;;4926822;28;86333;-85
2021/01/23 09:40:55;;;;;;;3.08;2.88;;;6.60;99.90;;;;;;4924621;28;87452;-80
2021/01/23 09:43:21;;;;;;;4.00;3.47;;;6.60;99.90;;;;;;4922080;28;87965;-85
2021/01/23 09:45:48;;;;;;;4.82;4.28;;;6.70;99.90;;;;;;4929653;28;88030;-86
2021/01/23 09:48:15;;;;;;;3.83;3.47;;;7.20;99.90;;;;;;4935926;28;86768;-86
2021/01/23 09:50:41;;;;;;;2.13;1.92;;;7.30;99.90;;;;;;4928031;28;87032;-84
2021/01/23 09:53:07;;;;;;;3.28;3.08;;;7.70;96.30;;;;;;4927818;28;87278;-85
2021/01/23 09:55:33;;;;;;;4.07;3.78;;;7.80;94.90;;;;;;4930704;28;86906;-85
2021/01/23 09:57:58;;;;;;;3.75;3.42;;;7.90;94.50;;;;;;4929760;28;86750;-84
2021/01/23 10:00:24;;;;;;;3.50;3.20;;;8.10;91.80;;;;;;4920917;28;87591;-85
2021/01/23 10:02:50;;;;;;;3.75;3.45;;;7.80;93.00;;;;;;4917029;28;86236;-84
2021/01/23 10:05:16;;;;;;;3.30;2.58;;;8.00;93.30;;;;;;4940971;28;86980;-84
2021/01/23 10:07:41;;;;;;;4.45;3.92;;;7.70;94.60;;;;;;4911032;28;88744;-83
2021/01/23 10:10:09;;;;;;;4.28;2.95;;;7.70;95.60;;;;;;4928527;28;87461;-85
2021/01/23 10:12:35;;;;;;;4.20;2.80;;;7.50;95.80;;;;;;4929768;28;87118;-85
2021/01/23 10:15:00;;;;;;;4.57;3.97;;;7.40;96.00;;;;;;4938790;28;86619;-85
2021/01/23 10:17:26;;;;;;;3.90;3.42;;;7.40;96.10;;;;;;4943774;28;87009;-84
2021/01/23 10:19:52;;;;;;;4.03;3.63;;;7.50;95.40;;;;;;4932930;28;86590;-86
2021/01/23 10:22:19;;;;;;;3.72;3.42;;;7.70;95.20;;;;;;4931708;28;86756;-84
2021/01/23 10:24:45;;;;;;;4.32;3.92;;;7.60;93.90;;;;;;4944102;28;86243;-84
2021/01/23 10:27:12;;;;;;;4.38;3.42;;;;;;;;;;4945224;28;85595;-84
2021/01/23 10:29:38;;;;;;;3.33;3.13;;;7.70;93.70;;;;;;4931699;28;87352;-86
2021/01/23 10:32:04;;;;;;;3.58;3.28;;;7.90;93.00;;;;;;4923653;28;86620;-86
2021/01/23 10:34:29;;;;;;;3.45;3.15;;;8.60;91.60;;;;;;4922453;28;87924;-85
2021/01/23 10:36:55;;;;;;;3.70;3.25;;;8.50;91.90;;;;;;4929483;28;87045;-85
2021/01/23 10:39:22;;;;;;;4.00;3.70;;;9.30;88.00;;;;;;4929518;28;87559;-85
2021/01/23 10:41:49;;;;;;;3.80;3.50;;;;;;;;;;4928154;28;87022;-83
2021/01/23 10:44:14;;;;;;;4.18;3.78;;;9.20;85.70;;;;;;4926549;28;86297;-84
2021/01/23 10:46:40;;;;;;;3.58;3.28;;;9.20;86.90;;;;;;4926106;28;87002;-86
2021/01/23 10:49:06;;;;;;;3.72;3.50;;;9.00;87.90;;;;;;4927754;28;86758;-82
2021/01/23 10:51:32;;;;;;;4.43;4.03;;;8.90;87.40;;;;;;4924584;28;87041;-82
2021/01/23 10:53:58;;;;;;;3.75;3.45;;;8.80;89.10;;;;;;4919856;28;87035;-81
2021/01/23 10:56:23;;;;;;;4.07;3.83;;;8.60;90.00;;;;;;4925721;28;86911;-83
2021/01/23 10:58:49;;;;;;;4.00;3.70;;;8.60;88.30;;;;;;4925993;28;87947;-82
2021/01/23 11:01:15;;;;;;;3.63;3.33;;;8.30;90.60;;;;;;4930802;28;87141;-80
2021/01/23 11:03:40;;;;;;;3.40;3.10;;;8.30;91.00;;;;;;4925497;28;87042;-84
2021/01/23 11:06:06;;;;;;;3.20;3.00;;;8.30;88.90;;;;;;4928366;28;87176;-84
2021/01/23 11:08:32;;;;;;;3.53;3.22;;;8.00;87.70;;;;;;4923547;28;87115;-82
2021/01/23 11:10:58;;;;;;;2.58;1.48;;;7.60;89.90;;;;;;4912561;28;88648;-83
2021/01/23 11:13:24;;;;;;;2.90;2.70;;;7.40;90.20;;;;;;4926692;28;86479;-80
2021/01/23 11:15:49;;;;;;;2.78;2.58;;;7.10;91.20;;;;;;4928430;28;86110;-81
2021/01/23 11:18:16;;;;;;;2.95;2.75;;;6.80;92.10;;;;;;4933420;28;86880;-83
2021/01/23 11:20:41;;;;;;;3.15;2.38;;;6.70;93.10;;;;;;4929552;28;86924;-82
2021/01/23 11:23:07;;;;;;;3.28;2.97;;;6.70;93.90;;;;;;4932404;28;87769;-82
2021/01/23 11:25:33;;;;;;;3.47;3.17;;;6.60;93.70;;;;;;4931085;28;86838;-82
2021/01/23 11:27:58;;;;;;;3.38;3.17;;;6.50;94.60;;;;;;4930488;28;86965;-83
2021/01/23 11:30:25;;;;;;;2.83;2.63;;;6.40;95.00;;;;;;4933334;28;87098;-81
2021/01/23 11:32:51;;;;;;;3.42;3.10;;;6.40;94.50;;;;;;4932027;28;87106;-81
2021/01/23 11:35:17;;;;;;;3.40;3.10;;;6.50;94.50;;;;;;4931440;28;86995;-82
2021/01/23 11:37:43;;;;;;;2.95;2.75;;;6.40;94.80;;;;;;4927264;28;87271;-83
2021/01/23 11:40:09;;;;;;;3.97;3.67;;;6.50;94.60;;;;;;4936579;28;87214;-81
2021/01/23 11:42:35;;;;;;;3.05;2.85;;;;;;;;;;4926407;28;87245;-81
2021/01/23 11:45:03;;;;;;;3.58;3.28;;;6.40;95.10;;;;;;4926421;28;87000;-83
2021/01/23 11:47:29;;;;;;;5.15;4.10;;;10.90;98.90;;;;;;4929877;28;88249;-81
2021/01/23 11:49:54;;;;;;;5.20;4.20;;;6.30;97.80;;;;;;4931350;28;87021;-83
2021/01/23 11:52:20;;;;;;;4.55;4.13;;;6.60;98.20;;;;;;4924896;28;86532;-82
2021/01/23 11:54:47;;;;;;;5.60;5.10;;;6.70;97.90;;;;;;4925731;28;87696;-82
2021/01/23 11:57:13;;;;;;;5.00;4.07;;;6.90;97.50;;;;;;4918111;28;86751;-82
2021/01/23 11:59:40;;;;;;;5.22;3.67;;;6.80;97.60;;;;;;4925999;28;86990;-82
2021/01/23 12:02:06;;;;;;;4.78;4.32;;;6.80;96.60;;;;;;4930018;28;87102;-83
2021/01/23 12:04:31;;;;;;;6.68;4.40;;;6.60;97.50;;;;;;4928665;28;86065;-78
2021/01/23 12:06:58;;;;;;;4.88;4.47;;;6.80;98.20;;;;;;4924544;28;87408;-79
2021/01/23 12:09:24;;;;;;;4.05;3.75;;;6.80;95.50;;;;;;4926138;28;88224;-80
2021/01/23 12:11:50;;;;;;;5.13;4.63;;;6.80;95.50;;;;;;4923298;28;87581;-79
2021/01/23 12:14:16;;;;;;;3.97;3.67;;;6.80;95.60;;;;;;4922240;28;87143;-79
2021/01/23 12:16:41;;;;;;;4.88;4.43;;;7.00;95.10;;;;;;4928672;28;86964;-80
2021/01/23 12:19:08;;;;;;;4.93;4.50;;;7.20;95.60;;;;;;4930813;28;87108;-80
2021/01/23 12:21:33;;;;;;;5.97;4.75;;;7.40;94.40;;;;;;4929548;28;87109;-81
2021/01/23 12:23:59;;;;;;;7.07;5.00;;;7.40;94.50;;;;;;4924093;28;87110;-81
2021/01/23 12:26:25;;;;;;;4.93;4.43;;;7.50;94.70;;;;;;4926821;28;87343;-81
2021/01/23 12:28:52;;;;;;;3.75;3.45;;;7.70;94.10;;;;;;4931726;28;88018;-81
2021/01/23 12:31:17;;;;;;;7.43;4.22;;;7.40;92.70;;;;;;4925028;28;87464;-82
2021/01/23 12:33:43;;;;;;;6.60;3.80;;;7.40;93.40;;;;;;4918113;28;86904;-80
2021/01/23 12:36:09;;;;;;;5.57;4.40;;;7.30;93.10;;;;;;4929223;28;88559;-82
2021/01/23 12:38:35;;;;;;;4.68;4.30;;;7.20;92.70;;;;;;4926740;28;87795;-82
2021/01/23 12:41:00;;;;;;;4.53;3.67;;;7.10;92.90;;;;;;4926626;28;86925;-81
2021/01/23 12:43:26;;;;;;;5.15;4.00;;;7.20;92.30;;;;;;4920963;28;87142;-81
2021/01/23 12:45:52;;;;;;;4.53;3.85;;;6.90;92.50;;;;;;4937479;28;87368;-81
2021/01/23 12:48:19;;;;;;;5.97;4.40;;;;;;;;;;4936324;28;88700;-82
2021/01/23 12:50:45;;;;;;;4.40;4.00;;;;;;;;;;4926338;28;87040;-81
2021/01/23 12:53:11;;;;;;;5.47;4.40;;;6.80;92.30;;;;;;4930018;28;87100;-82
2021/01/23 12:55:37;;;;;;;4.05;3.67;;;6.80;92.90;;;;;;4924456;28;87282;-81
2021/01/23 12:58:03;;;;;;;3.85;3.55;;;6.80;93.00;;;;;;4925827;28;86931;-81
2021/01/23 13:00:29;;;;;;;4.85;4.45;;;6.60;93.50;;;;;;4925247;28;88543;-81
2021/01/23 13:02:55;;;;;;;3.92;3.53;;;6.70;93.80;;;;;;4926349;28;86968;-81
2021/01/23 13:05:20;;;;;;;6.22;4.72;;;6.60;93.90;;;;;;4923261;28;88135;-82
2021/01/23 13:07:48;;;;;;;4.82;4.43;;;6.70;94.00;;;;;;4924311;28;87539;-81
2021/01/23 13:10:13;;;;;;;4.57;4.15;;;6.90;94.10;;;;;;4920241;28;87202;-81
2021/01/23 13:12:39;;;;;;;4.65;4.20;;;7.20;93.50;;;;;;4907959;28;86861;-82
2021/01/23 13:15:06;;;;;;;4.30;3.90;;;7.30;92.50;;;;;;4924134;28;87689;-82
2021/01/23 13:17:32;;;;;;;4.80;4.40;;;7.50;91.70;;;;;;4926489;28;87106;-81
2021/01/23 13:19:58;;;;;;;5.90;4.20;;;7.50;91.20;;;;;;4923193;28;87473;-83
2021/01/23 13:22:25;;;;;;;4.80;4.40;;;7.20;91.20;;;;;;4927443;28;87223;-82
2021/01/23 13:24:51;;;;;;;4.57;3.90;;;7.00;92.00;;;;;;4929686;28;88156;-85
2021/01/23 13:27:17;;;;;;;4.43;4.05;;;7.20;91.50;;;;;;4931207;28;87265;-81
2021/01/23 13:29:43;;;;;;;4.78;4.38;;;7.20;91.90;;;;;;4938767;28;87044;-81
2021/01/23 13:32:09;;;;;;;4.13;3.47;;;7.30;91.40;;;;;;4924412;28;86981;-81
2021/01/23 13:34:35;;;;;;;5.05;4.63;;;7.40;90.70;;;;;;4940848;28;87281;-81
2021/01/23 13:37:01;;;;;;;4.30;3.95;;;7.40;90.30;;;;;;4935802;28;86933;-84
2021/01/23 13:39:27;;;;;;;5.05;4.60;;;7.20;90.50;;;;;;4940488;28;87128;-83
2021/01/23 13:41:53;;;;;;;4.13;3.75;;;7.30;90.70;;;;;;4930787;28;86014;-80
2021/01/23 13:44:18;;;;;;;6.10;4.13;;;7.40;90.30;;;;;;4935746;28;86865;-81
2021/01/23 13:46:44;;;;;;;4.80;3.90;;;7.30;90.50;;;;;;4939193;28;86673;-80
2021/01/23 13:49:11;;;;;;;5.22;4.40;;;7.40;90.50;;;;;;4932358;28;87569;-81
2021/01/23 13:51:37;;;;;;;7.88;5.32;;;7.30;90.30;;;;;;4925631;28;87103;-82
2021/01/23 13:54:03;;;;;;;5.38;4.88;;;7.30;90.60;;;;;;4927843;28;88285;-80
2021/01/23 13:56:29;;;;;;;9.60;4.38;;;7.20;90.90;;;;;;4928510;28;88101;-82
2021/01/23 13:58:55;;;;;;;13.45;6.45;;;7.20;91.20;;;;;;4929781;28;87043;-82
2021/01/23 14:01:21;;;;;;;40.63;14.40;;;7.20;91.60;;;;;;4927481;28;87999;-81
2021/01/23 14:03:46;;;;;;;27.13;9.98;;;7.20;91.60;;;;;;4924548;28;88156;-83
2021/01/23 14:06:17;;;;;;;28.70;10.05;;;7.20;91.30;;;;;;4926992;28;86549;-83
2021/01/23 14:08:42;;;;;;;7.13;5.47;;;7.50;91.20;;;;;;4937265;28;86838;-82
2021/01/23 14:11:08;;;;;;;5.50;5.00;;;7.60;90.50;;;;;;4918608;28;87598;-80
2021/01/23 14:13:34;;;;;;;4.78;4.35;;;7.60;90.50;;;;;;4926523;28;87470;-82
2021/01/23 14:16:00;;;;;;;6.75;4.47;;;7.90;90.00;;;;;;4926753;28;86991;-83
2021/01/23 14:18:26;;;;;;;5.53;4.15;;;8.50;87.50;;;;;;4926334;28;86965;-82
2021/01/23 14:20:52;;;;;;;5.80;4.70;;;8.80;84.00;;;;;;4925581;28;86892;-82
2021/01/23 14:23:18;;;;;;;5.68;4.90;;;9.20;83.50;;;;;;4927975;28;87377;-84
2021/01/23 14:25:44;;;;;;;4.57;4.18;;;9.90;79.90;;;;;;4932615;28;87699;-81
2021/01/23 14:28:10;;;;;;;7.75;5.20;;;10.50;76.60;;;;;;4937792;28;86513;-78
2021/01/23 14:30:36;;;;;;;5.47;4.55;;;11.00;74.70;;;;;;4934262;28;86143;-80
2021/01/23 14:33:06;;;;;;;5.22;4.82;;;11.10;71.70;;;;;;4910654;28;87187;-81
2021/01/23 14:35:32;;;;;;;4.65;4.22;;;11.20;68.80;;;;;;4928593;28;86897;-79
2021/01/23 14:37:58;;;;;;;5.03;4.53;;;11.40;67.40;;;;;;4940753;28;88059;-80
2021/01/23 14:40:24;;;;;;;4.40;4.00;;;11.10;68.00;;;;;;4936568;28;86237;-81
2021/01/23 14:42:54;;;;;;;4.30;3.83;;;11.00;68.40;;;;;;4911183;28;88891;-83
2021/01/23 14:45:21;;;;;;;4.53;4.13;;;10.90;69.00;;;;;;4910847;28;88708;-81
2021/01/23 14:47:47;;;;;;;4.72;3.97;;;10.90;68.20;;;;;;4923231;28;87022;-82
2021/01/23 14:50:14;;;;;;;5.90;5.03;;;10.50;67.90;;;;;;4923200;28;87757;-80
2021/01/23 14:52:41;;;;;;;5.15;4.60;;;9.90;70.10;;;;;;4929466;28;88638;-80
2021/01/23 14:55:07;;;;;;;5.53;4.28;;;9.40;71.20;;;;;;4928376;28;87278;-81
2021/01/23 14:57:33;;;;;;;8.90;6.05;;;8.80;73.20;;;;;;4928672;28;86965;-81
2021/01/23 14:59:59;;;;;;;6.28;5.35;;;8.30;76.10;;;;;;4929903;28;86953;-80
2021/01/23 15:02:25;;;;;;;5.82;5.25;;;7.90;76.20;;;;;;4921130;28;88191;-81
2021/01/23 15:04:51;;;;;;;4.40;4.00;;;7.60;78.30;;;;;;4923706;28;86899;-80
2021/01/23 15:07:18;;;;;;;5.03;4.63;;;7.40;80.70;;;;;;4924461;28;87352;-81
2021/01/23 15:09:45;;;;;;;4.93;4.25;;;7.20;80.10;;;;;;4923921;28;86826;-79
2021/01/23 15:12:11;;;;;;;4.95;4.38;;;7.00;82.10;;;;;;4926836;28;87126;-80
2021/01/23 15:14:37;;;;;;;6.28;4.47;;;6.90;82.80;;;;;;4927081;28;87128;-79
2021/01/23 15:17:04;;;;;;;7.93;5.57;;;6.90;83.40;;;;;;4927318;28;87021;-79
2021/01/23 15:19:30;;;;;;;4.63;4.22;;;6.80;84.10;;;;;;4925457;28;86031;-78
2021/01/23 15:21:56;;;;;;;4.82;3.95;;;6.60;85.00;;;;;;4925126;28;87032;-79
2021/01/23 15:24:22;;;;;;;7.10;5.68;;;6.50;86.10;;;;;;4925764;28;87049;-77
2021/01/23 15:26:49;;;;;;;17.58;7.50;;;6.30;87.50;;;;;;4926009;28;87912;-80
2021/01/23 15:29:15;;;;;;;5.72;5.05;;;6.10;89.70;;;;;;4921117;28;86339;-79
2021/01/23 15:31:41;;;;;;;5.85;5.25;;;6.00;90.40;;;;;;4923539;28;87757;-82
2021/01/23 15:34:07;;;;;;;16.58;8.27;;;5.80;90.70;;;;;;4925258;28;87135;-78
2021/01/23 15:36:32;;;;;;;40.42;13.98;;;5.70;91.00;;;;;;4907082;28;87055;-79
2021/01/23 15:38:59;;;;;;;25.80;10.88;;;5.70;91.40;;;;;;4923239;28;86347;-78
2021/01/23 15:41:25;;;;;;;17.20;9.65;;;5.60;91.80;;;;;;4902910;28;88790;-79
2021/01/23 15:43:51;;;;;;;12.68;8.45;;;5.50;92.00;;;;;;4916130;28;87823;-79
2021/01/23 15:46:17;;;;;;;9.02;7.95;;;5.50;92.60;;;;;;4922890;28;87096;-78
2021/01/23 15:48:43;;;;;;;10.32;7.30;;;5.50;92.70;;;;;;4921079;28;87309;-79
2021/01/23 15:51:09;;;;;;;9.60;6.80;;;5.40;93.60;;;;;;4919928;28;88048;-78
2021/01/23 15:53:35;;;;;;;8.27;5.95;;;5.30;94.50;;;;;;4921747;28;87952;-77
2021/01/23 15:56:01;;;;;;;7.35;6.65;;;5.10;95.90;;;;;;4915338;28;87041;-78
2021/01/23 15:58:26;;;;;;;12.07;7.30;;;5.10;96.90;;;;;;4921242;28;87051;-78
2021/01/23 16:00:52;;;;;;;11.90;7.15;;;5.00;97.70;;;;;;4915395;28;87249;-77
2021/01/23 16:03:18;;;;;;;8.00;5.95;;;5.00;98.20;;;;;;4921194;28;87220;-77
2021/01/23 16:05:48;;;;;;;7.03;5.65;;;5.10;98.30;;;;;;4926917;28;88633;-77
2021/01/23 16:08:14;;;;;;;10.75;6.97;;;5.00;97.70;;;;;;4921524;28;86309;-78
2021/01/23 16:10:40;;;;;;;15.18;8.93;;;5.00;98.70;;;;;;4917973;28;87539;-77
2021/01/23 16:13:07;;;;;;;13.75;8.40;;;4.90;99.90;;;;;;4912644;28;87324;-79
2021/01/23 16:15:33;;;;;;;19.58;11.40;;;4.80;99.90;;;;;;4922109;28;87864;-79
2021/01/23 16:17:59;;;;;;;21.55;12.15;;;4.80;99.90;;;;;;4933120;28;87163;-79
2021/01/23 16:20:33;;;;;;;15.07;9.65;;;4.80;99.90;;;;;;4922072;28;88034;-77
2021/01/23 16:23:03;;;;;;;14.35;8.65;;;4.70;99.90;;;;;;4921539;28;86983;-78
2021/01/23 16:25:30;;;;;;;13.23;7.55;;;4.70;99.90;;;;;;4907449;28;86993;-79
2021/01/23 16:27:56;;;;;;;12.65;7.32;;;4.70;99.90;;;;;;4905987;28;86878;-77
2021/01/23 16:30:23;;;;;;;17.15;7.82;;;4.70;99.80;;;;;;4925708;28;87339;-79
2021/01/23 16:32:49;;;;;;;18.20;8.35;;;;;;;;;;4922331;28;86246;-79
2021/01/23 16:35:15;;;;;;;14.45;6.95;;;4.60;99.90;;;;;;4927938;28;86957;-79
2021/01/23 16:37:42;;;;;;;9.48;6.72;;;4.50;99.90;;;;;;4921332;28;87058;-79
2021/01/23 16:40:09;;;;;;;9.70;5.85;;;4.30;99.90;;;;;;4913977;28;87984;-78
2021/01/23 16:42:34;;;;;;;8.70;5.82;;;3.90;99.90;;;;;;4917069;28;87709;-79
2021/01/23 16:45:00;;;;;;;8.25;5.35;;;4.00;99.90;;;;;;4920968;28;87287;-78
2021/01/23 16:47:26;;;;;;;6.78;5.28;;;3.90;99.90;;;;;;4924996;28;87365;-79
2021/01/23 16:49:51;;;;;;;8.77;6.22;;;3.80;99.90;;;;;;4926169;28;87048;-79
2021/01/23 16:52:17;;;;;;;13.48;6.82;;;3.60;99.90;;;;;;4922051;28;87034;-79
2021/01/23 16:54:44;;;;;;;9.65;6.75;;;3.60;99.90;;;;;;4918606;28;86603;-79
2021/01/23 16:57:10;;;;;;;8.98;6.78;;;3.60;99.90;;;;;;4921911;28;86427;-79
2021/01/23 16:59:39;;;;;;;12.45;6.55;;;3.50;99.90;;;;;;4920690;28;87679;-79